Latest Coastal Weather Observations for Christmas Island

IDW60701

Issued at 9:43 pm WST Monday 4 May 2026 (issued every 10 minutes, with the page automatically refreshed every 10 minutes)

About coastal observations | Map of coastal stations | Coastal observations for WA | Marine services | Other Formats
Station Details ID: 200790 Name: CHRISTMAS ISLAND AERO Lat: -10.45 Lon: 105.69 Height: 261.0 m
Data from the previous 72 hours. | See also: Recent months at Christmas Island
Date/Time
WST
Wind Sea
Height
m
Swell Vis
km
Cloud Weather Temp
°C
Press
MSL
hPa
Rain since
9am
mm
Dir  Spd
kts
Gust
kts
Height
m
Period
s
Dir
04/09:30pm ESE 9 14 - - - - 10 Partly cloudy - 26.3 1011.8 0.0
04/09:23pm ESE 10 14 - - - - 10 Partly cloudy - 26.3 1011.7 0.0
04/09:00pm ESE 10 15 - - - - 10 Cloudy - 26.3 1011.5 0.0
04/08:30pm ESE 9 13 - - - - 10 Partly cloudy - 26.3 1010.9 0.0
04/08:00pm E 12 18 - - - - 10 Partly cloudy - 26.4 1010.6 0.0
04/07:30pm E 10 14 - - - - 10 Partly cloudy - 26.4 1010.4 0.0
04/07:00pm E 10 15 - - - - 10 Cloudy - 26.6 1010.3 0.0
04/06:30pm E 11 18 - - - - 10 Partly cloudy - 26.6 1010.0 0.0
04/06:00pm ESE 10 16 - - - - 10 Partly cloudy - 26.7 1009.7 0.0
04/05:30pm E 11 16 - - - - 10 Partly cloudy - 27.2 1009.5 0.0
04/05:00pm E 9 18 - - - - 10 Partly cloudy - 27.2 1008.9 0.0
04/04:52pm ESE 10 14 - - - - 10 Partly cloudy - 27.1 1008.9 0.0
04/04:30pm E 12 15 - - - - 10 Partly cloudy - 27.0 1008.7 0.0
04/04:00pm ESE 10 16 - - - - 10 Cloudy - 26.7 1008.7 0.0
04/03:52pm E 10 14 - - - - 10 Partly cloudy - 27.0 1008.8 0.0
04/03:34pm ESE 10 14 - - - - 10 Partly cloudy - 27.1 1008.9 0.0
04/03:33pm ESE 10 14 - - - - 10 Partly cloudy - 27.1 1008.9 0.0
04/03:30pm ESE 10 14 - - - - 10 Partly cloudy - 27.2 1008.9 0.0
04/03:20pm ESE 10 16 - - - - 10 Partly cloudy - 26.8 1009.1 0.0
04/03:00pm ESE 11 16 - - - - 10 Partly cloudy - 27.4 1009.2 0.0
04/02:30pm E 10 17 - - - - 10 Partly cloudy - 28.0 1009.7 0.0
04/02:21pm E 11 17 - - - - 10 Partly cloudy - 28.5 1009.8 0.0
04/02:00pm ESE 11 18 - - - - 10 Partly cloudy - 28.1 1010.0 0.0
04/01:30pm ESE 10 15 - - - - 10 Partly cloudy - 27.6 1010.6 0.0
04/01:00pm ESE 9 13 - - - - 10 Cloudy - 27.6 1010.9 0.0
04/12:30pm E 10 14 - - - - 10 Partly cloudy - 27.8 1011.3 0.0
04/12:00pm E 11 16 - - - - 10 Partly cloudy - 28.2 1011.7 0.0
04/11:30am E 11 15 - - - - 10 Partly cloudy - 27.7 1012.0 0.0
04/11:17am ESE 9 14 - - - - 10 Partly cloudy - 27.6 1012.2 0.0
04/11:00am E 11 17 - - - - 10 Partly cloudy - 27.8 1012.4 0.0
04/10:30am E 10 15 - - - - 10 Partly cloudy - 27.7 1012.5 0.0
04/10:20am ESE 10 15 - - - - 10 Partly cloudy - 27.3 1012.6 0.0
04/10:00am E 11 15 - - - - 10 Cloudy - 27.3 1012.6 0.0
04/09:30am E 10 13 - - - - 10 Partly cloudy - 27.4 1012.4 0.0
04/09:00am E 8 12 - - - - 10 Cloudy - 26.8 1012.0 0.0
04/08:36am ESE 8 11 - - - - 10 Partly cloudy - 26.4 1011.8 0.0
04/08:32am ESE 8 12 - - - - 10 Partly cloudy - 26.4 1011.8 0.0
04/08:30am ESE 8 12 - - - - 10 Partly cloudy - 26.4 1011.7 0.0
04/08:00am ESE 8 11 - - - - 10 Partly cloudy - 26.6 1011.6 0.0
04/07:30am E 8 10 - - - - 10 Partly cloudy - 26.1 1011.3 0.0
04/07:00am E 8 13 - - - - 10 Mostly cloudy - 25.9 1011.1 0.0
04/06:30am ESE 6 10 - - - - 10 Cloudy - 25.8 1010.9 0.0
04/06:00am ESE 6 11 - - - - 10 Cloudy - 25.7 1010.6 0.0
04/05:30am E 7 9 - - - - 10 Partly cloudy - 25.6 1010.5 0.0
04/05:00am ESE 6 9 - - - - 10 Partly cloudy - 25.6 1010.6 0.0
04/04:30am E 7 10 - - - - 10 Partly cloudy - 25.7 1010.6 0.0
04/04:00am ESE 6 9 - - - - 10 Cloudy - 25.7 1010.7 0.0
04/03:30am ESE 7 11 - - - - 10 Partly cloudy - 25.8 1010.7 0.0
04/03:00am ESE 7 10 - - - - 10 Partly cloudy - 25.7 1010.9 0.0
04/02:30am ESE 7 11 - - - - 10 Partly cloudy - 25.7 1011.4 0.0
04/02:00am SE 6 9 - - - - 10 Partly cloudy - 25.8 1011.7 0.0
04/01:30am SE 6 10 - - - - 10 Partly cloudy - 25.8 1011.7 0.0
04/01:00am SE 8 12 - - - - 10 Partly cloudy - 25.7 1012.0 0.0
04/12:30am SE 7 11 - - - - 10 Partly cloudy - 25.8 1012.1 0.0
04/12:00am SE 8 13 - - - - 10 Partly cloudy - 25.9 1012.3 0.0
 
Date/Time
WST
Wind Sea
Height
m
Swell Vis
km
Cloud Weather Temp
°C
Press
MSL
hPa
Rain since
9am
mm
Dir  Spd
kts
Gust
kts
Height
m
Period
s
Dir
03/11:30pm SE 9 13 - - - - 10 Partly cloudy - 25.9 1012.4 0.0
03/11:20pm SE 8 12 - - - - 10 Partly cloudy - 25.9 1012.3 0.0
03/11:06pm ESE 9 15 - - - - 10 Partly cloudy - 26.0 1012.4 0.0
03/11:00pm ESE 9 15 - - - - 10 Partly cloudy - 26.1 1012.4 0.0
03/10:30pm SE 7 11 - - - - 10 Partly cloudy - 26.0 1012.4 0.0
03/10:14pm ESE 9 12 - - - - 10 Partly cloudy - 26.1 1012.3 0.0
03/10:13pm ESE 9 12 - - - - 10 Partly cloudy - 26.1 1012.3 0.0
03/10:00pm ESE 8 13 - - - - 10 Cloudy - 25.9 1012.1 0.0
03/09:54pm ESE 10 13 - - - - 10 Partly cloudy - 26.1 1012.1 0.0
03/09:52pm ESE 10 13 - - - - 10 Partly cloudy - 26.1 1012.1 0.0
03/09:30pm SE 9 14 - - - - 10 Partly cloudy - 26.0 1011.9 0.0
03/09:06pm ESE 10 16 - - - - 10 Partly cloudy - 26.2 1011.5 0.0
03/09:00pm ESE 10 16 - - - - 10 Partly cloudy - 26.3 1011.4 0.0
03/08:30pm ESE 9 13 - - - - 10 Partly cloudy - 25.9 1011.0 0.0
03/08:00pm ESE 9 13 - - - - 10 Partly cloudy - 26.1 1010.5 0.0
03/07:30pm ESE 8 14 - - - - 10 Partly cloudy - 26.1 1010.1 0.0
03/07:00pm ESE 10 14 - - - - 10 Mostly cloudy - 26.1 1009.6 0.0
03/06:30pm ESE 10 14 - - - - 10 Partly cloudy - 26.3 1009.2 0.0
03/06:00pm ESE 9 13 - - - - 10 Partly cloudy - 26.3 1009.0 0.0
03/05:30pm ESE 8 13 - - - - 10 Partly cloudy - 27.1 1008.9 0.0
03/05:00pm ESE 10 15 - - - - 10 Partly cloudy - 27.2 1008.6 0.0
03/04:30pm ESE 10 14 - - - - 10 Partly cloudy - 27.6 1008.7 0.0
03/04:00pm ESE 10 15 - - - - 10 Partly cloudy - 27.6 1008.9 0.0
03/03:30pm ESE 11 15 - - - - 10 Partly cloudy - 28.0 1008.8 0.0
03/03:00pm E 10 14 - - - - 10 Partly cloudy - 28.1 1009.2 0.0
03/02:30pm ESE 10 16 - - - - 10 Partly cloudy - 27.4 1009.5 0.0
03/02:00pm E 12 17 - - - - 10 Partly cloudy - 27.9 1010.0 0.0
03/01:30pm ESE 11 17 - - - - 10 Partly cloudy - 27.9 1010.3 0.0
03/01:00pm ESE 11 17 - - - - 10 Partly cloudy - 28.2 1010.5 0.0
03/12:30pm ESE 11 16 - - - - 10 Partly cloudy - 27.4 1010.8 0.0
03/12:00pm ESE 13 21 - - - - 10 Cloudy - 27.0 1011.1 0.0
03/11:30am ESE 11 17 - - - - 10 Cloudy - 27.1 1011.4 0.0
03/11:00am SE 11 17 - - - - 10 Cloudy - 27.5 1011.4 0.0
03/10:30am ESE 10 17 - - - - 10 Partly cloudy - 27.3 1011.6 0.0
03/10:00am ESE 11 18 - - - - 10 Mostly cloudy - 27.1 1011.6 0.0
03/09:30am SE 10 17 - - - - 10 Partly cloudy - 27.0 1011.2 0.0
03/09:00am ESE 11 19 - - - - 10 Partly cloudy - 27.1 1010.9 0.0
03/08:30am ESE 11 15 - - - - 10 Partly cloudy - 26.5 1010.6 0.0
03/08:00am ESE 11 17 - - - - 10 Partly cloudy - 26.1 1010.2 0.0
03/07:30am ESE 11 17 - - - - 10 Partly cloudy - 26.2 1009.7 0.0
03/07:21am ESE 10 18 - - - - 10 Partly cloudy - 26.1 1009.6 0.0
03/07:00am ESE 11 16 - - - - 10 Mostly cloudy - 25.9 1009.2 0.0
03/06:30am SE 10 17 - - - - 10 Cloudy - 25.8 1008.9 0.0
03/06:00am SE 9 15 - - - - 10 Partly cloudy - 25.6 1008.7 0.0
03/05:30am ESE 9 15 - - - - 10 Cloudy - 25.6 1008.7 0.0
03/05:00am SE 9 14 - - - - 10 Cloudy - 25.6 1008.9 0.0
03/04:30am SE 9 17 - - - - 10 Partly cloudy - 25.7 1009.0 0.0
03/04:00am SE 9 15 - - - - 10 Mostly cloudy - 25.7 1009.0 0.0
03/03:30am SE 9 15 - - - - 10 Partly cloudy - 25.8 1009.4 0.0
03/03:00am SE 10 15 - - - - 10 Cloudy - 25.8 1009.4 0.0
03/02:30am SE 9 13 - - - - 10 Cloudy - 25.8 1009.5 0.0
03/02:00am SE 9 14 - - - - 10 Cloudy - 25.8 1009.7 0.0
03/01:30am SE 8 13 - - - - 10 Cloudy - 25.9 1010.2 0.0
03/01:00am SE 9 13 - - - - 10 Mostly cloudy - 25.9 1010.4 0.0
03/12:30am SE 8 13 - - - - 10 Cloudy - 25.9 1010.8 0.0
03/12:00am SE 7 12 - - - - 10 Partly cloudy - 25.9 1010.9 0.0
 
Date/Time
WST
Wind Sea
Height
m
Swell Vis
km
Cloud Weather Temp
°C
Press
MSL
hPa
Rain since
9am
mm
Dir  Spd
kts
Gust
kts
Height
m
Period
s
Dir
02/11:30pm SE 7 12 - - - - 10 Partly cloudy - 25.9 1011.2 0.0
02/11:00pm SE 7 11 - - - - 10 Cloudy - 25.8 1011.2 0.0
02/10:30pm SE 6 12 - - - - 10 Partly cloudy - 25.8 1011.3 0.0
02/10:00pm SE 8 13 - - - - 10 Cloudy - 25.8 1011.3 0.0
02/09:30pm SE 8 12 - - - - 10 Partly cloudy - 26.0 1011.2 0.0
02/09:00pm SE 6 10 - - - - 10 Partly cloudy - 25.9 1010.8 0.0
02/08:30pm SE 7 11 - - - - 10 Partly cloudy - 25.8 1010.6 0.0
02/08:00pm SE 7 11 - - - - 10 Partly cloudy - 25.8 1010.2 0.0
02/07:30pm SE 6 9 - - - - 10 Partly cloudy - 25.8 1009.8 0.0
02/07:26pm SE 6 9 - - - - 10 Partly cloudy - 25.8 1009.8 0.0
02/07:00pm SE 7 10 - - - - 10 Partly cloudy - 25.9 1009.4 0.0
02/06:30pm SE 8 12 - - - - 10 Partly cloudy - 26.3 1009.2 0.0
02/06:00pm SE 7 11 - - - - 10 Partly cloudy - 26.7 1009.1 0.0
02/05:30pm SE 7 9 - - - - 10 Partly cloudy - 27.0 1009.0 0.0
02/05:00pm SE 8 12 - - - - 10 Partly cloudy - 26.8 1009.1 0.0
02/04:30pm SE 8 13 - - - - 10 Partly cloudy - 26.9 1008.9 0.0
02/04:00pm ESE 9 12 - - - - 10 Cloudy - 27.2 1008.8 0.0
02/03:30pm ESE 9 13 - - - - 10 Partly cloudy - 27.7 1008.7 0.0
02/03:00pm ESE 11 16 - - - - 10 Partly cloudy - 27.9 1009.1 0.0
02/02:30pm ESE 11 16 - - - - 10 Partly cloudy - 27.9 1009.6 0.0
02/02:00pm ESE 11 16 - - - - 10 Partly cloudy - 28.5 1009.9 0.0
02/01:30pm ESE 11 15 - - - - 10 Partly cloudy - 28.4 1010.3 0.0
02/01:00pm ESE 9 13 - - - - 10 Cloudy - 28.1 1010.7 0.0
02/12:30pm E 11 19 - - - - 10 Cloudy - 28.0 1011.0 0.0
02/12:00pm ESE 10 15 - - - - 10 Partly cloudy - 27.7 1011.4 0.0
02/11:30am ESE 11 19 - - - - 10 Partly cloudy - 28.1 1011.6 0.0
02/11:00am ESE 11 17 - - - - 10 Partly cloudy - 28.0 1011.5 0.0
02/10:30am ESE 10 18 - - - - 10 Partly cloudy - 27.7 1011.4 0.0
02/10:00am E 11 16 - - - - 10 Partly cloudy - 27.3 1011.2 0.0
02/09:30am ESE 10 15 - - - - 10 Cloudy - 27.3 1011.2 0.0
02/09:00am ESE 10 18 - - - - 10 Partly cloudy - 27.1 1011.0 0.0
02/08:30am ESE 11 18 - - - - 10 Partly cloudy - 26.7 1010.7 0.0
02/08:00am ESE 10 16 - - - - 10 Partly cloudy - 26.3 1010.4 0.0
02/07:30am ESE 10 18 - - - - 10 Partly cloudy - 26.2 1010.0 0.0
02/07:00am ESE 10 18 - - - - 10 Cloudy - 25.9 1009.8 0.0
02/06:30am ESE 10 17 - - - - 10 Partly cloudy - 26.0 1009.7 0.0
02/06:19am ESE 10 15 - - - - 10 Partly cloudy - 26.0 1009.7 0.0
02/06:00am ESE 11 17 - - - - 10 Cloudy - 26.0 1009.4 0.0
02/05:36am ESE 9 16 - - - - 10 Cloudy - 26.0 1009.2 0.0
02/05:30am ESE 9 15 - - - - 10 Cloudy - 26.0 1009.1 0.0
02/05:00am ESE 10 17 - - - - 10 Partly cloudy - 26.0 1009.5 0.0
02/04:53am ESE 11 20 - - - - 10 Partly cloudy - 26.1 1009.6 0.0
02/04:30am ESE 11 16 - - - - 10 Partly cloudy - 26.0 1009.6 0.0
02/04:00am ESE 10 15 - - - - 10 Mostly cloudy - 26.1 1009.7 0.0
02/03:30am ESE 10 16 - - - - 10 Partly cloudy - 26.0 1009.8 0.0
02/03:00am SE 9 17 - - - - 10 Partly cloudy - 26.0 1010.2 0.0
02/02:30am SE 9 14 - - - - 10 Cloudy - 26.1 1010.5 0.0
02/02:00am SE 10 16 - - - - 10 Partly cloudy - 26.1 1010.8 0.0
02/01:30am ESE 10 17 - - - - 10 Partly cloudy - 26.1 1011.2 0.0
02/01:00am ESE 10 15 - - - - 10 Mostly cloudy - 26.2 1011.3 0.0
02/12:30am SE 9 15 - - - - 10 Cloudy - 26.2 1011.4 0.0
02/12:00am ESE 9 13 - - - - 10 Cloudy - 26.2 1011.6 0.0
 
Date/Time
WST
Wind Sea
Height
m
Swell Vis
km
Cloud Weather Temp
°C
Press
MSL
hPa
Rain since
9am
mm
Dir  Spd
kts
Gust
kts
Height
m
Period
s
Dir
01/11:30pm ESE 10 16 - - - - 10 Partly cloudy - 26.2 1011.7 0.0
01/11:00pm ESE 10 15 - - - - 10 Mostly clear - 26.3 1011.7 0.0
01/10:30pm SE 10 15 - - - - 10 Cloudy - 26.4 1011.6 0.0
01/10:00pm SE 10 15 - - - - 10 Cloudy - 26.4 1011.6 0.0

Other formats

Comma delimited format used in spreadsheet applications
http://www.bom.gov.au/fwo/IDW60701/IDW60701.96995.axf

JavaScript Object Notation format (JSON) in row-major order
http://www.bom.gov.au/fwo/IDW60701/IDW60701.96995.json

Data quality

Most of these data are generated automatically and are frequently updated. Quality checks on data are not normally performed. It is possible for incorrect values to appear. Refer to information at About Latest Weather Observations and please check the disclaimer before using these data.